Time;durP1;ratioP1;P1;durP2;ratioP2;P2;SDS_P1;SDS_P2;PMS_P1;PMS_P2;Temp;Humidity;BMP_temperature;BMP_pressure;BME280_temperature;BME280_humidity;BME280_pressure;Samples;Min_cycle;Max_cycle;Signal;HPM_P1;HPM_P2
2022/10/18 00:00:24;;;;;;;12.50;6.67;;;16.90;15.60;;;;;;5090398;28;20718;-77
2022/10/18 00:02:50;;;;;;;13.10;6.57;;;16.90;15.40;;;;;;5085671;28;20284;-74
2022/10/18 00:05:15;;;;;;;15.40;7.90;;;16.90;18.30;;;;;;5090903;28;20184;-76
2022/10/18 00:07:41;;;;;;;10.87;7.60;;;16.90;16.80;;;;;;5085987;28;20191;-75
2022/10/18 00:10:07;;;;;;;9.60;6.40;;;17.00;15.20;;;;;;5090455;28;20180;-75
2022/10/18 00:12:34;;;;;;;9.23;6.93;;;17.00;15.50;;;;;;5086165;28;20180;-74
2022/10/18 00:15:00;;;;;;;11.10;6.97;;;17.10;15.40;;;;;;5081658;28;20465;-76
2022/10/18 00:17:26;;;;;;;14.90;6.97;;;17.10;14.70;;;;;;5100440;28;20417;-78
2022/10/18 00:19:52;;;;;;;12.90;6.73;;;17.10;16.80;;;;;;5083986;28;20430;-75
2022/10/18 00:22:17;;;;;;;13.00;7.80;;;17.10;15.90;;;;;;5080937;28;20213;-75
2022/10/18 00:24:43;;;;;;;12.90;8.07;;;17.20;15.80;;;;;;5090255;28;20217;-75
2022/10/18 00:27:08;;;;;;;11.47;7.27;;;17.20;15.30;;;;;;5087659;28;20172;-75
2022/10/18 00:29:34;;;;;;;8.20;6.57;;;17.20;15.20;;;;;;5090563;28;20199;-75
2022/10/18 00:32:00;;;;;;;10.33;6.70;;;17.20;14.00;;;;;;5087277;28;20206;-75
2022/10/18 00:34:25;;;;;;;8.50;6.40;;;17.20;13.60;;;;;;5089242;28;20287;-75
2022/10/18 00:36:51;;;;;;;10.00;6.67;;;17.20;12.80;;;;;;5088760;28;20192;-75
2022/10/18 00:39:19;;;;;;;15.70;6.33;;;17.20;12.30;;;;;;5083071;28;20226;-75
2022/10/18 00:41:45;;;;;;;20.30;6.60;;;17.30;11.90;;;;;;5088525;28;20219;-74
2022/10/18 00:44:10;;;;;;;17.53;6.97;;;17.40;12.00;;;;;;5091938;28;20998;-75
2022/10/18 00:46:42;;;;;;;11.50;6.30;;;17.40;10.40;;;;;;5089103;28;20426;-76
2022/10/18 00:49:11;;;;;;;12.87;7.20;;;18.00;9.50;;;;;;5086675;28;20240;-75
2022/10/18 00:51:44;;;;;;;10.30;5.80;;;17.60;5.80;;;;;;5089523;28;20510;-73
2022/10/18 00:54:12;;;;;;;11.47;6.20;;;17.70;3.60;;;;;;5085986;28;20461;-77
2022/10/18 00:56:38;;;;;;;9.33;5.93;;;17.80;1.00;;;;;;5091244;28;20402;-75
2022/10/18 00:59:04;;;;;;;11.30;5.90;;;17.90;1.00;;;;;;5085148;28;20792;-74
2022/10/18 01:01:30;;;;;;;11.10;6.37;;;18.00;1.00;;;;;;5090490;28;20434;-74
2022/10/18 01:03:56;;;;;;;10.20;5.37;;;18.30;1.00;;;;;;5085294;28;20190;-76
2022/10/18 01:06:22;;;;;;;12.60;6.30;;;18.20;1.00;;;;;;5090721;28;20164;-75
2022/10/18 01:08:48;;;;;;;17.60;6.10;;;18.30;1.00;;;;;;5084417;28;20435;-74
2022/10/18 01:11:38;;;;;;;11.33;6.23;;;18.30;1.00;;;;;;5089780;28;20582;-75
2022/10/18 01:14:29;;;;;;;9.60;5.30;;;18.30;1.00;;;;;;5083745;28;20545;-75
2022/10/18 01:17:10;;;;;;;9.80;5.93;;;18.50;1.00;;;;;;5087346;28;20453;-75
2022/10/18 01:20:06;;;;;;;12.67;6.60;;;18.50;1.00;;;;;;5087709;28;20456;-76
2022/10/18 01:23:03;;;;;;;9.77;5.83;;;18.50;1.00;;;;;;5090418;28;20409;-74
2022/10/18 01:25:44;;;;;;;17.13;6.03;;;18.60;1.00;;;;;;5067781;28;20438;-74
2022/10/18 01:28:27;;;;;;;11.17;5.13;;;18.60;1.00;;;;;;5075169;28;20428;-76
2022/10/18 01:30:58;;;;;;;10.90;6.40;;;18.70;1.00;;;;;;5087998;28;20437;-73
2022/10/18 01:33:44;;;;;;;8.63;5.60;;;18.70;1.00;;;;;;5079406;28;21013;-75
2022/10/18 01:36:26;;;;;;;10.30;5.63;;;18.70;1.00;;;;;;5086712;28;20430;-74
2022/10/18 01:38:55;;;;;;;10.83;5.53;;;18.70;1.00;;;;;;5090411;28;20487;-77
2022/10/18 01:41:24;;;;;;;13.30;6.20;;;18.80;1.00;;;;;;5084430;28;20441;-75
2022/10/18 01:43:55;;;;;;;11.00;6.00;;;18.70;1.00;;;;;;5079437;28;20437;-76
2022/10/18 01:46:23;;;;;;;14.57;5.80;;;18.70;1.00;;;;;;5083127;28;20434;-75
2022/10/18 01:48:51;;;;;;;9.13;5.73;;;18.80;1.00;;;;;;5089531;28;20459;-75
2022/10/18 01:51:28;;;;;;;18.17;6.37;;;18.80;1.00;;;;;;5079944;28;20575;-75
2022/10/18 01:53:54;;;;;;;10.10;6.20;;;18.80;1.00;;;;;;5087873;28;20456;-75
2022/10/18 01:56:31;;;;;;;16.10;6.80;;;18.80;1.00;;;;;;5087425;28;20418;-75
2022/10/18 01:59:16;;;;;;;9.90;5.70;;;18.80;1.00;;;;;;5088392;28;20504;-76
2022/10/18 02:01:54;;;;;;;8.23;5.87;;;18.80;1.00;;;;;;5082900;28;20454;-77
2022/10/18 02:04:28;;;;;;;9.93;5.80;;;18.80;1.00;;;;;;5083715;28;20422;-75
2022/10/18 02:07:04;;;;;;;11.53;6.10;;;18.90;1.00;;;;;;5090422;28;20425;-75
2022/10/18 02:09:49;;;;;;;13.10;6.47;;;18.80;1.00;;;;;;5080029;28;20440;-74
2022/10/18 02:12:16;;;;;;;11.30;6.20;;;18.70;1.00;;;;;;5080662;28;20429;-76
2022/10/18 02:14:44;;;;;;;11.50;6.10;;;18.70;1.00;;;;;;5087107;28;20465;-75
2022/10/18 02:17:11;;;;;;;9.13;6.00;;;18.70;1.00;;;;;;5093691;28;20500;-75
2022/10/18 02:19:52;;;;;;;9.70;6.37;;;18.70;1.00;;;;;;5083890;28;20434;-76
2022/10/18 02:22:19;;;;;;;11.37;6.10;;;19.00;1.00;;;;;;5083980;28;21000;-75
2022/10/18 02:24:52;;;;;;;15.40;6.37;;;18.70;1.00;;;;;;5087217;28;20970;-75
2022/10/18 02:27:18;;;;;;;8.60;6.00;;;18.70;1.00;;;;;;5090093;28;20496;-75
2022/10/18 02:29:45;;;;;;;9.90;6.10;;;18.70;1.00;;;;;;5086487;28;20549;-77
2022/10/18 02:32:20;;;;;;;14.50;7.03;;;18.70;1.00;;;;;;5086014;28;20291;-75
2022/10/18 02:34:54;;;;;;;26.80;7.73;;;18.60;1.00;;;;;;5082094;28;20465;-78
2022/10/18 02:37:20;;;;;;;12.57;6.30;;;18.60;1.00;;;;;;5075765;28;20946;-75
2022/10/18 02:39:49;;;;;;;13.97;6.60;;;18.60;1.00;;;;;;5089529;28;20410;-78
2022/10/18 02:42:15;;;;;;;16.13;6.07;;;18.60;1.00;;;;;;5083241;28;20198;-76
2022/10/18 02:44:40;;;;;;;10.03;5.83;;;18.60;1.00;;;;;;5086366;28;20418;-75
2022/10/18 02:47:08;;;;;;;15.77;6.37;;;18.60;1.00;;;;;;5087021;28;20249;-75
2022/10/18 02:49:33;;;;;;;17.13;5.93;;;18.50;1.00;;;;;;5097100;28;20207;-75
2022/10/18 02:51:59;;;;;;;15.13;6.00;;;18.90;1.00;;;;;;5087426;28;20473;-75
2022/10/18 02:54:25;;;;;;;15.43;6.00;;;18.50;1.00;;;;;;5082199;28;20265;-75
2022/10/18 02:56:50;;;;;;;16.03;6.63;;;18.40;1.00;;;;;;5088151;28;20180;-75
2022/10/18 02:59:16;;;;;;;10.30;6.13;;;18.40;1.00;;;;;;5089121;28;20195;-74
2022/10/18 03:01:41;;;;;;;9.10;6.20;;;18.40;1.00;;;;;;5086537;28;20249;-75
2022/10/18 03:04:07;;;;;;;8.00;5.97;;;18.30;1.00;;;;;;5083798;28;20171;-78
2022/10/18 03:06:33;;;;;;;13.00;6.57;;;18.40;1.00;;;;;;5084944;28;20188;-73
2022/10/18 03:09:01;;;;;;;12.00;6.23;;;18.20;1.00;;;;;;5092624;28;20171;-75
2022/10/18 03:11:26;;;;;;;15.80;6.60;;;18.20;1.00;;;;;;5091388;28;20199;-75
2022/10/18 03:13:52;;;;;;;11.60;6.80;;;18.10;1.00;;;;;;5086773;28;20464;-78
2022/10/18 03:16:18;;;;;;;12.20;6.53;;;18.10;1.00;;;;;;5089522;28;20565;-75
2022/10/18 03:18:43;;;;;;;10.90;6.47;;;18.10;1.00;;;;;;5090809;28;20183;-76
2022/10/18 03:21:09;;;;;;;9.20;6.80;;;18.20;1.00;;;;;;5090462;28;20204;-75
2022/10/18 03:23:34;;;;;;;10.87;6.30;;;18.20;1.00;;;;;;5092852;28;20183;-77
2022/10/18 03:26:00;;;;;;;10.67;6.60;;;18.20;1.00;;;;;;5090677;28;20207;-77
2022/10/18 03:28:26;;;;;;;9.50;6.10;;;18.20;1.00;;;;;;5087427;28;20175;-75
2022/10/18 03:30:51;;;;;;;8.70;5.87;;;18.20;1.00;;;;;;5091887;28;20198;-79
2022/10/18 03:33:17;;;;;;;10.23;6.30;;;18.20;1.00;;;;;;5084859;28;20176;-75
2022/10/18 03:35:43;;;;;;;9.07;6.60;;;18.20;1.00;;;;;;5090178;28;20229;-77
2022/10/18 03:38:08;;;;;;;7.90;5.97;;;18.20;1.00;;;;;;5087656;28;20183;-78
2022/10/18 03:40:34;;;;;;;12.37;5.70;;;18.20;1.00;;;;;;5087923;28;20199;-75
2022/10/18 03:42:59;;;;;;;9.97;6.13;;;18.10;1.00;;;;;;5084983;28;20172;-76
2022/10/18 03:45:25;;;;;;;9.90;5.87;;;18.00;1.00;;;;;;5092072;28;20774;-75
2022/10/18 03:47:51;;;;;;;11.40;6.23;;;18.10;1.00;;;;;;5095986;28;20210;-75
2022/10/18 03:50:17;;;;;;;13.67;6.20;;;18.10;1.00;;;;;;5092090;28;20188;-76
2022/10/18 03:52:42;;;;;;;11.20;6.67;;;18.10;1.00;;;;;;5086777;28;20642;-74
2022/10/18 03:55:08;;;;;;;10.77;6.17;;;18.10;1.00;;;;;;5091892;28;20445;-75
2022/10/18 03:57:34;;;;;;;11.70;6.00;;;18.60;1.00;;;;;;5084184;28;20733;-75
2022/10/18 03:59:59;;;;;;;9.60;6.30;;;18.20;1.00;;;;;;5091452;28;20171;-75
2022/10/18 04:02:25;;;;;;;12.17;6.20;;;18.30;1.00;;;;;;5085843;28;20182;-74
2022/10/18 04:04:51;;;;;;;10.43;6.10;;;18.30;1.00;;;;;;5091899;28;20174;-76
2022/10/18 04:07:17;;;;;;;15.27;7.00;;;18.20;1.00;;;;;;5085533;28;20191;-76
2022/10/18 04:09:42;;;;;;;16.77;6.67;;;18.20;1.00;;;;;;5090992;28;20422;-77
2022/10/18 04:12:08;;;;;;;12.03;6.20;;;18.20;1.00;;;;;;5084575;28;20445;-75
2022/10/18 04:14:34;;;;;;;10.60;6.27;;;18.10;1.00;;;;;;5080331;28;20640;-76
2022/10/18 04:16:59;;;;;;;14.47;6.73;;;18.10;1.00;;;;;;5091177;28;20164;-76
2022/10/18 04:19:26;;;;;;;8.63;6.60;;;18.00;1.00;;;;;;5107086;28;20198;-75
2022/10/18 04:21:52;;;;;;;8.80;6.73;;;18.10;1.00;;;;;;5088630;28;20282;-74
2022/10/18 04:24:18;;;;;;;10.10;6.63;;;18.10;1.00;;;;;;5091134;28;20519;-75
2022/10/18 04:26:43;;;;;;;10.47;6.10;;;18.10;1.00;;;;;;5090190;28;20187;-78
2022/10/18 04:29:09;;;;;;;8.57;5.63;;;18.20;1.00;;;;;;5090126;28;20738;-75
2022/10/18 04:31:34;;;;;;;12.53;5.90;;;18.50;1.00;;;;;;5084926;28;20235;-77
2022/10/18 04:34:01;;;;;;;7.97;5.57;;;18.20;1.00;;;;;;5091081;28;20380;-76
2022/10/18 04:36:27;;;;;;;11.53;6.10;;;18.20;1.00;;;;;;5084393;28;20297;-75
2022/10/18 04:38:52;;;;;;;11.80;6.23;;;18.30;1.00;;;;;;5090992;28;20485;-77
2022/10/18 04:41:18;;;;;;;13.00;6.20;;;18.30;1.00;;;;;;5082827;28;20589;-75
2022/10/18 04:43:43;;;;;;;20.33;5.70;;;18.50;1.00;;;;;;5085989;28;20734;-75
2022/10/18 04:46:09;;;;;;;11.77;6.30;;;18.30;1.00;;;;;;5089274;28;20191;-75
2022/10/18 04:48:34;;;;;;;8.10;5.90;;;18.30;1.00;;;;;;5090699;28;20492;-75
2022/10/18 04:51:00;;;;;;;12.43;6.37;;;18.20;1.00;;;;;;5080471;28;20195;-76
2022/10/18 04:53:25;;;;;;;12.10;6.17;;;18.30;1.00;;;;;;5090890;28;20221;-75
2022/10/18 04:55:51;;;;;;;21.67;9.03;;;18.20;1.00;;;;;;5085356;28;20259;-75
2022/10/18 04:58:17;;;;;;;15.67;7.13;;;18.10;1.00;;;;;;5090097;28;20172;-75
2022/10/18 05:00:43;;;;;;;11.13;6.57;;;18.10;1.00;;;;;;5083878;28;20205;-75
2022/10/18 05:03:11;;;;;;;11.00;6.30;;;18.10;1.00;;;;;;5078372;28;20427;-76
2022/10/18 05:05:37;;;;;;;17.17;6.83;;;18.00;1.00;;;;;;5086950;28;20176;-78
2022/10/18 05:08:03;;;;;;;14.50;6.43;;;17.90;1.00;;;;;;5085658;28;20439;-75
2022/10/18 05:10:28;;;;;;;9.90;6.23;;;17.90;1.00;;;;;;5084701;28;20535;-75
2022/10/18 05:12:54;;;;;;;10.93;6.77;;;17.80;1.00;;;;;;5085398;28;20196;-74
2022/10/18 05:15:19;;;;;;;11.87;6.50;;;17.70;1.00;;;;;;5087786;28;20558;-77
2022/10/18 05:17:45;;;;;;;11.53;7.33;;;17.70;1.00;;;;;;5086802;28;20187;-74
2022/10/18 05:20:11;;;;;;;14.03;8.23;;;17.70;1.00;;;;;;5082385;28;21588;-77
2022/10/18 05:22:36;;;;;;;19.63;8.03;;;17.70;1.00;;;;;;5090158;28;20172;-75
2022/10/18 05:25:02;;;;;;;14.20;6.83;;;17.70;1.00;;;;;;5078297;28;20716;-74
2022/10/18 05:27:28;;;;;;;15.30;6.47;;;17.70;1.00;;;;;;5090020;28;20168;-75
2022/10/18 05:29:53;;;;;;;13.87;6.53;;;17.70;1.00;;;;;;5087298;28;20198;-75
2022/10/18 05:32:19;;;;;;;15.43;6.97;;;17.70;1.00;;;;;;5089606;28;20179;-75
2022/10/18 05:34:44;;;;;;;12.70;6.20;;;17.60;1.00;;;;;;5084249;28;20203;-77
2022/10/18 05:37:10;;;;;;;10.70;6.60;;;17.60;1.00;;;;;;5081541;28;20225;-75
2022/10/18 05:39:37;;;;;;;13.40;6.40;;;17.60;1.00;;;;;;5089406;28;20176;-77
2022/10/18 05:42:03;;;;;;;15.33;6.20;;;17.60;1.00;;;;;;5103756;28;20191;-76
2022/10/18 05:44:28;;;;;;;15.33;7.63;;;17.60;1.00;;;;;;5084551;28;20414;-74
2022/10/18 05:46:54;;;;;;;20.33;6.97;;;17.70;1.00;;;;;;5090072;28;20428;-75
2022/10/18 05:49:20;;;;;;;11.50;6.50;;;17.80;1.00;;;;;;5095595;28;20194;-73
2022/10/18 05:51:45;;;;;;;10.27;6.40;;;17.80;1.00;;;;;;5087992;28;20218;-75
2022/10/18 05:54:12;;;;;;;10.07;6.10;;;17.90;1.00;;;;;;5086959;28;20208;-75
2022/10/18 05:56:38;;;;;;;11.30;6.60;;;17.90;1.00;;;;;;5089147;28;20176;-75
2022/10/18 05:59:06;;;;;;;19.23;7.00;;;17.90;1.00;;;;;;5087044;28;20785;-75
2022/10/18 06:01:32;;;;;;;12.13;7.47;;;18.00;1.00;;;;;;5080282;28;20438;-75
2022/10/18 06:03:57;;;;;;;10.00;6.60;;;18.00;1.00;;;;;;5070050;28;20921;-74
2022/10/18 06:06:23;;;;;;;12.03;7.27;;;18.00;1.00;;;;;;5084662;28;20172;-75
2022/10/18 06:08:49;;;;;;;11.80;7.07;;;18.00;1.00;;;;;;5079225;28;20184;-75
2022/10/18 06:11:17;;;;;;;10.20;7.00;;;18.00;1.00;;;;;;5078274;28;20196;-75
2022/10/18 06:13:48;;;;;;;11.03;6.97;;;18.00;1.00;;;;;;5081609;28;20465;-76
2022/10/18 06:16:16;;;;;;;11.83;6.60;;;18.00;1.00;;;;;;5077899;28;20968;-78
2022/10/18 06:18:42;;;;;;;18.97;6.97;;;18.10;1.00;;;;;;5077050;28;20448;-76
2022/10/18 06:21:08;;;;;;;20.67;6.90;;;18.10;1.00;;;;;;5081514;28;21031;-75
2022/10/18 06:23:34;;;;;;;13.50;6.70;;;18.10;1.00;;;;;;5088564;28;20180;-76
2022/10/18 06:26:06;;;;;;;18.63;8.50;;;18.00;1.00;;;;;;5060977;28;20520;-77
2022/10/18 06:28:33;;;;;;;9.60;5.90;;;18.10;1.00;;;;;;5075849;28;20619;-76
2022/10/18 06:30:59;;;;;;;11.83;7.13;;;18.10;1.00;;;;;;5071152;28;20449;-76
2022/10/18 06:33:25;;;;;;;11.80;6.80;;;18.10;1.00;;;;;;5079262;28;20459;-74
2022/10/18 06:35:59;;;;;;;11.00;7.47;;;18.10;1.00;;;;;;5084375;28;20179;-73
2022/10/18 06:38:25;;;;;;;18.00;6.73;;;18.10;1.00;;;;;;5098664;28;20713;-74
2022/10/18 06:40:51;;;;;;;10.63;6.60;;;18.10;1.00;;;;;;5091494;28;20481;-74
2022/10/18 06:43:17;;;;;;;12.13;7.13;;;18.30;1.00;;;;;;5084716;28;20483;-75
2022/10/18 06:45:42;;;;;;;17.00;6.70;;;18.10;1.00;;;;;;5082987;28;20200;-75
2022/10/18 06:48:08;;;;;;;12.23;6.97;;;18.20;1.00;;;;;;5096564;28;20182;-75
2022/10/18 06:50:33;;;;;;;17.20;7.47;;;18.20;1.00;;;;;;5101332;28;20634;-74
2022/10/18 06:53:00;;;;;;;15.70;7.60;;;18.20;1.00;;;;;;5085335;28;20592;-76
2022/10/18 06:55:25;;;;;;;11.83;7.60;;;18.30;1.00;;;;;;5091297;28;20218;-75
2022/10/18 06:57:52;;;;;;;11.37;7.43;;;18.20;1.00;;;;;;5096128;28;20792;-75
2022/10/18 07:00:17;;;;;;;14.83;7.40;;;18.20;1.00;;;;;;5100875;28;20196;-76
2022/10/18 07:02:43;;;;;;;13.67;7.10;;;18.30;1.00;;;;;;5090429;28;20429;-75
2022/10/18 07:05:10;;;;;;;12.07;7.37;;;18.30;1.00;;;;;;5077329;28;20712;-77
2022/10/18 07:07:36;;;;;;;17.07;8.03;;;18.30;1.00;;;;;;5090078;28;20380;-76
2022/10/18 07:10:01;;;;;;;12.57;7.10;;;18.40;1.00;;;;;;5091124;28;20426;-74
2022/10/18 07:12:27;;;;;;;14.10;7.37;;;18.40;1.00;;;;;;5082159;28;20555;-74
2022/10/18 07:14:52;;;;;;;11.97;7.27;;;18.50;1.00;;;;;;5092548;28;20198;-75
2022/10/18 07:17:18;;;;;;;26.17;8.30;;;18.50;1.00;;;;;;5087181;28;20232;-77
2022/10/18 07:19:43;;;;;;;11.70;6.83;;;18.70;1.00;;;;;;5091325;28;20663;-78
2022/10/18 07:22:09;;;;;;;9.43;7.30;;;18.90;1.00;;;;;;5092783;28;20848;-78
2022/10/18 07:24:34;;;;;;;18.47;7.80;;;19.00;1.00;;;;;;5081307;28;20184;-74
2022/10/18 07:27:00;;;;;;;13.67;7.37;;;19.00;1.00;;;;;;5083605;28;20179;-77
2022/10/18 07:29:25;;;;;;;19.00;7.50;;;19.10;1.00;;;;;;5082326;28;20195;-74
2022/10/18 07:31:51;;;;;;;13.30;7.37;;;18.80;1.00;;;;;;5097188;28;20199;-75
2022/10/18 07:34:16;;;;;;;12.07;7.43;;;18.40;1.00;;;;;;5090957;28;20581;-75
2022/10/18 07:36:42;;;;;;;11.33;6.70;;;18.30;1.00;;;;;;5094258;28;20650;-75
2022/10/18 07:39:08;;;;;;;16.13;8.03;;;18.30;1.00;;;;;;5089410;28;20168;-76
2022/10/18 07:41:33;;;;;;;9.20;7.17;;;18.30;1.00;;;;;;5083313;28;20200;-76
2022/10/18 07:44:00;;;;;;;14.60;7.07;;;18.30;1.00;;;;;;5087477;28;20203;-77
2022/10/18 07:46:25;;;;;;;12.70;7.60;;;18.30;1.00;;;;;;5087831;28;20237;-75
2022/10/18 07:48:51;;;;;;;11.80;7.23;;;18.30;1.00;;;;;;5084588;28;20442;-77
2022/10/18 07:51:18;;;;;;;14.73;8.00;;;18.30;1.00;;;;;;5086243;28;20208;-76
2022/10/18 07:53:44;;;;;;;11.10;8.10;;;18.30;1.00;;;;;;5079238;28;20200;-74
2022/10/18 07:56:15;;;;;;;17.97;8.30;;;18.40;1.00;;;;;;5090434;28;20763;-77
2022/10/18 07:58:43;;;;;;;13.63;8.10;;;18.30;1.00;;;;;;5090474;28;20171;-75
2022/10/18 08:01:09;;;;;;;18.73;8.03;;;18.20;1.00;;;;;;5086795;28;20512;-75
2022/10/18 08:03:35;;;;;;;21.23;8.40;;;18.00;1.00;;;;;;5083436;28;20988;-76
2022/10/18 08:06:01;;;;;;;14.97;7.70;;;17.90;1.30;;;;;;5083211;28;20948;-75
2022/10/18 08:08:28;;;;;;;15.40;8.17;;;17.80;7.70;;;;;;5084890;28;20504;-75
2022/10/18 08:10:53;;;;;;;11.30;8.10;;;17.60;11.90;;;;;;5080184;28;20430;-75
2022/10/18 08:13:19;;;;;;;11.33;8.60;;;17.60;14.80;;;;;;5073867;28;20780;-76
2022/10/18 08:15:45;;;;;;;11.23;7.37;;;17.50;20.30;;;;;;5085194;28;20681;-75
2022/10/18 08:18:11;;;;;;;17.70;7.70;;;17.50;24.90;;;;;;5095777;28;20194;-76
2022/10/18 08:20:40;;;;;;;11.57;7.90;;;17.50;24.80;;;;;;5088726;28;20434;-79
2022/10/18 08:23:07;;;;;;;14.90;7.90;;;17.70;29.00;;;;;;5089470;28;20643;-75
2022/10/18 08:25:32;;;;;;;15.73;8.87;;;17.60;25.60;;;;;;5080130;28;20425;-75
2022/10/18 08:27:58;;;;;;;20.93;8.20;;;17.80;27.10;;;;;;5097520;28;20779;-75
2022/10/18 08:30:23;;;;;;;12.13;8.13;;;17.90;23.70;;;;;;5089148;28;20203;-79
2022/10/18 08:32:49;;;;;;;18.33;7.90;;;18.10;22.10;;;;;;5081135;28;20175;-75
2022/10/18 08:35:15;;;;;;;13.97;8.80;;;18.20;20.50;;;;;;5081217;28;20294;-76
2022/10/18 08:37:40;;;;;;;19.70;8.77;;;18.30;19.40;;;;;;5081684;28;20164;-75
2022/10/18 08:40:06;;;;;;;18.17;8.90;;;18.40;15.70;;;;;;5080264;28;20185;-74
2022/10/18 08:42:42;;;;;;;26.83;8.70;;;18.40;15.30;;;;;;5089675;28;20176;-75
2022/10/18 08:45:11;;;;;;;16.60;9.20;;;18.30;18.50;;;;;;5082167;28;20430;-76
2022/10/18 08:47:40;;;;;;;13.50;8.83;;;18.30;17.30;;;;;;5080851;28;21128;-76
2022/10/18 08:50:21;;;;;;;14.23;9.27;;;18.10;19.20;;;;;;5089529;28;20457;-75
2022/10/18 08:52:59;;;;;;;12.50;8.53;;;18.20;20.60;;;;;;5091604;28;20799;-77
2022/10/18 08:55:40;;;;;;;15.03;8.57;;;18.10;23.50;;;;;;5088855;28;20497;-78
2022/10/18 08:58:22;;;;;;;13.07;9.10;;;18.20;27.70;;;;;;5081783;28;20442;-79
2022/10/18 09:01:01;;;;;;;16.43;9.63;;;18.30;25.70;;;;;;5088691;28;20892;-78
2022/10/18 09:03:32;;;;;;;15.20;10.20;;;18.40;27.40;;;;;;5075273;28;20794;-78
2022/10/18 09:06:30;;;;;;;12.30;9.43;;;18.60;24.60;;;;;;5089615;28;20436;-75
2022/10/18 09:09:07;;;;;;;10.90;8.77;;;19.00;20.90;;;;;;5085422;28;20434;-79
2022/10/18 09:11:57;;;;;;;11.93;8.43;;;19.10;16.70;;;;;;5088453;28;20449;-78
2022/10/18 09:14:34;;;;;;;11.53;8.47;;;19.30;11.00;;;;;;5086994;28;20556;-76
2022/10/18 09:17:44;;;;;;;13.50;8.37;;;19.70;3.20;;;;;;5089699;28;20453;-75
2022/10/18 09:20:24;;;;;;;14.13;7.53;;;20.50;1.00;;;;;;5075078;28;20484;-77
2022/10/18 09:22:52;;;;;;;10.27;7.77;;;21.20;1.00;;;;;;5087420;28;20941;-75
2022/10/18 09:25:19;;;;;;;10.50;6.80;;;22.00;1.00;;;;;;5090671;28;20402;-77
2022/10/18 09:27:49;;;;;;;9.00;6.80;;;23.30;1.00;;;;;;5084912;28;20430;-79
2022/10/18 09:30:28;;;;;;;12.47;7.33;;;23.50;1.00;;;;;;5089799;28;20483;-79
2022/10/18 09:33:28;;;;;;;17.13;7.03;;;23.00;1.00;;;;;;5089603;28;20528;-76
2022/10/18 09:35:59;;;;;;;10.37;7.00;;;22.30;1.00;;;;;;5090808;28;20410;-76
2022/10/18 09:38:39;;;;;;;17.60;7.70;;;21.70;1.00;;;;;;5086544;28;20421;-78
2022/10/18 09:41:12;;;;;;;10.10;7.00;;;21.40;1.00;;;;;;5081586;28;20460;-75
2022/10/18 09:44:11;;;;;;;9.40;6.63;;;21.40;1.00;;;;;;5079264;28;20473;-76
2022/10/18 09:46:41;;;;;;;12.43;7.27;;;22.40;1.00;;;;;;5082522;28;20944;-76
2022/10/18 09:49:25;;;;;;;14.00;6.77;;;23.40;1.00;;;;;;5083632;28;20421;-76
2022/10/18 09:51:52;;;;;;;17.30;7.20;;;24.30;1.00;;;;;;5087734;28;20441;-77
2022/10/18 09:54:30;;;;;;;10.90;6.30;;;26.30;1.00;;;;;;5083909;28;20461;-75
2022/10/18 09:57:03;;;;;;;10.20;5.63;;;28.50;1.00;;;;;;5085179;28;20457;-75
2022/10/18 09:59:37;;;;;;;9.77;5.87;;;29.90;1.00;;;;;;5085191;28;20470;-75
2022/10/18 10:02:04;;;;;;;7.53;5.67;;;30.90;1.00;;;;;;5086351;28;20202;-77
2022/10/18 10:04:29;;;;;;;10.73;5.73;;;30.20;1.00;;;;;;5088958;28;20649;-75
2022/10/18 10:06:59;;;;;;;13.57;5.57;;;30.90;1.00;;;;;;5096117;28;20220;-76
2022/10/18 10:09:49;;;;;;;9.53;6.20;;;29.00;1.00;;;;;;5088198;28;20600;-76
2022/10/18 10:12:30;;;;;;;8.10;5.90;;;27.30;1.00;;;;;;5069357;28;20207;-76
2022/10/18 10:15:17;;;;;;;8.37;5.93;;;27.00;1.00;;;;;;5084725;28;20198;-77
2022/10/18 10:17:44;;;;;;;7.90;4.90;;;27.50;1.00;;;;;;5094614;28;20481;-77
2022/10/18 10:20:19;;;;;;;9.63;6.47;;;28.50;1.00;;;;;;5088185;28;20183;-79
2022/10/18 10:22:46;;;;;;;10.80;6.40;;;27.60;1.00;;;;;;5084236;28;20236;-78
2022/10/18 10:25:40;;;;;;;11.03;6.20;;;26.70;1.00;;;;;;5095505;28;20412;-79
2022/10/18 10:28:16;;;;;;;9.10;6.10;;;25.80;1.00;;;;;;5083858;28;20429;-80
2022/10/18 10:30:42;;;;;;;14.40;6.30;;;25.00;1.00;;;;;;5086239;28;21053;-79
2022/10/18 10:33:35;;;;;;;10.30;6.40;;;24.60;1.00;;;;;;5086611;28;20528;-78
2022/10/18 10:36:17;;;;;;;11.20;8.30;;;24.00;1.00;;;;;;5081512;28;20175;-78
2022/10/18 10:38:42;;;;;;;9.90;7.57;;;23.60;1.00;;;;;;5098934;28;20432;-77
2022/10/18 10:41:20;;;;;;;11.70;7.70;;;23.20;1.00;;;;;;5084646;28;20480;-78
2022/10/18 10:43:46;;;;;;;11.80;8.60;;;23.00;1.00;;;;;;5083509;28;20538;-77
2022/10/18 10:46:13;;;;;;;12.30;7.73;;;23.00;1.00;;;;;;5081640;28;20958;-78
2022/10/18 10:48:51;;;;;;;10.20;8.13;;;23.20;1.00;;;;;;5094745;28;20479;-79
2022/10/18 10:51:27;;;;;;;16.00;9.27;;;23.50;1.00;;;;;;5090146;28;20476;-79
2022/10/18 10:54:07;;;;;;;14.07;8.30;;;23.50;1.00;;;;;;5092904;28;20448;-80
2022/10/18 10:56:36;;;;;;;10.00;7.87;;;23.80;1.00;;;;;;5091231;28;20783;-79
2022/10/18 10:59:17;;;;;;;10.00;7.47;;;26.20;1.00;;;;;;5083795;28;20508;-78
2022/10/18 11:01:44;;;;;;;12.83;6.63;;;29.20;1.00;;;;;;5080570;28;20777;-78
2022/10/18 11:04:28;;;;;;;11.77;7.00;;;31.50;1.00;;;;;;5086276;28;20429;-79
2022/10/18 11:07:35;;;;;;;14.20;7.50;;;30.30;1.00;;;;;;5089884;28;20172;-78
2022/10/18 11:10:12;;;;;;;11.80;7.20;;;29.10;1.00;;;;;;5086068;28;20201;-79
2022/10/18 11:12:39;;;;;;;15.03;6.70;;;28.20;1.00;;;;;;5083628;28;20273;-77
2022/10/18 11:15:19;;;;;;;11.40;7.40;;;28.30;1.00;;;;;;5092583;28;20260;-82
2022/10/18 11:18:16;;;;;;;11.30;7.03;;;28.00;1.00;;;;;;5081618;28;20175;-81
2022/10/18 11:20:57;;;;;;;11.83;5.77;;;29.30;1.00;;;;;;5086299;28;20673;-81
2022/10/18 11:23:30;;;;;;;9.32;6.25;;;32.00;1.00;;;;;;5089595;28;20175;-80
2022/10/18 11:26:20;;;;;;;7.07;5.03;;;31.70;1.00;;;;;;5091593;28;20171;-80
2022/10/18 11:28:51;;;;;;;10.43;6.07;;;30.20;1.00;;;;;;5091268;28;20191;-82
2022/10/18 11:31:32;;;;;;;11.90;5.43;;;30.30;1.00;;;;;;5090270;28;20196;-81
2022/10/18 11:34:15;;;;;;;6.30;5.10;;;30.00;1.00;;;;;;5094364;28;20187;-81
2022/10/18 11:36:47;;;;;;;6.70;5.07;;;28.70;1.00;;;;;;5087837;28;20559;-78
2022/10/18 11:39:46;;;;;;;6.63;5.57;;;27.80;1.00;;;;;;5087448;28;20186;-80
2022/10/18 11:42:14;;;;;;;6.20;5.53;;;27.30;1.00;;;;;;5083214;28;20195;-77
2022/10/18 11:45:12;;;;;;;8.50;5.90;;;28.00;1.00;;;;;;5091529;28;20190;-78
2022/10/18 11:48:11;;;;;;;9.10;5.60;;;28.30;1.00;;;;;;5082072;28;20195;-80
2022/10/18 11:50:50;;;;;;;8.03;6.00;;;30.10;1.00;;;;;;5073691;28;20218;-81
2022/10/18 11:53:22;;;;;;;7.80;5.70;;;30.00;1.00;;;;;;5097097;28;20662;-78
2022/10/18 11:56:14;;;;;;;7.77;6.13;;;29.30;1.00;;;;;;5084039;28;20704;-77
2022/10/18 11:58:48;;;;;;;10.07;5.90;;;27.90;1.00;;;;;;5090426;28;20171;-77
2022/10/18 12:01:36;;;;;;;9.10;6.10;;;26.30;1.00;;;;;;5086614;28;20274;-77
2022/10/18 12:04:13;;;;;;;14.00;5.90;;;25.10;1.00;;;;;;5088617;28;20934;-76
2022/10/18 12:06:41;;;;;;;8.37;5.83;;;24.40;1.00;;;;;;5079097;28;20538;-78
2022/10/18 12:09:24;;;;;;;7.03;5.53;;;23.90;1.00;;;;;;5091910;28;20457;-76
2022/10/18 12:11:57;;;;;;;12.50;6.00;;;23.60;1.00;;;;;;5090699;28;20445;-77
2022/10/18 12:14:36;;;;;;;9.77;5.30;;;23.50;1.00;;;;;;5086757;28;20994;-77
2022/10/18 12:17:05;;;;;;;6.73;5.40;;;23.50;1.00;;;;;;5092416;28;20930;-79
2022/10/18 12:19:33;;;;;;;10.30;4.90;;;23.70;1.00;;;;;;5089312;28;20437;-78
2022/10/18 12:22:17;;;;;;;6.40;4.90;;;23.70;1.00;;;;;;5092031;28;20440;-77
2022/10/18 12:24:42;;;;;;;9.00;4.70;;;24.00;1.00;;;;;;5087994;28;20428;-81
2022/10/18 12:27:12;;;;;;;6.30;4.93;;;23.90;1.00;;;;;;5086339;28;20801;-76
2022/10/18 12:29:40;;;;;;;7.50;4.47;;;23.90;1.00;;;;;;5090863;28;20183;-77
2022/10/18 12:32:15;;;;;;;7.20;4.27;;;24.10;1.00;;;;;;5091622;28;20518;-76
2022/10/18 12:34:44;;;;;;;4.90;3.70;;;24.10;1.00;;;;;;5085838;28;20547;-77
2022/10/18 12:37:46;;;;;;;6.30;4.10;;;23.90;1.00;;;;;;5086243;28;20837;-77
2022/10/18 12:40:33;;;;;;;7.43;3.80;;;23.70;1.00;;;;;;5085879;28;20848;-77
2022/10/18 12:42:59;;;;;;;5.10;4.03;;;23.90;1.00;;;;;;5090149;28;20478;-77
2022/10/18 12:45:34;;;;;;;6.27;3.83;;;24.00;1.00;;;;;;5088441;28;20834;-77
2022/10/18 12:48:03;;;;;;;4.70;3.70;;;24.20;1.00;;;;;;5087403;28;20179;-77
2022/10/18 12:50:42;;;;;;;6.70;3.67;;;24.50;1.00;;;;;;5089348;28;20440;-76
2022/10/18 12:53:23;;;;;;;6.13;3.50;;;24.30;1.00;;;;;;5077365;28;20474;-79
2022/10/18 12:55:50;;;;;;;9.17;3.83;;;24.10;1.00;;;;;;5085908;28;20457;-77
2022/10/18 12:58:19;;;;;;;6.00;3.87;;;24.00;1.00;;;;;;5090710;28;20428;-77
2022/10/18 13:00:47;;;;;;;6.97;4.00;;;23.80;1.00;;;;;;5083614;28;20480;-78
2022/10/18 13:03:15;;;;;;;9.47;4.43;;;23.70;1.00;;;;;;5076103;28;20458;-76
2022/10/18 13:05:53;;;;;;;4.60;3.60;;;23.60;1.00;;;;;;5084899;28;20456;-79